Impacts METAR Board
IDs:

KFLL - Ft Lauderdale-Hollyw, FL, US

Updated at: 0400 UTC 10 Dec 2018
Potential Impact None Slight Moderate High
Time 09/16Z 09/17Z 09/18Z 09/19Z 09/20Z 09/21Z 09/22Z 09/23Z 10/00Z 10/01Z 10/02Z 10/03Z 10/04Z
Temp75 80 82 82 82 80 79 78 75 75 73 73 72
Dewpt75 78 74 73 72 72 71 73 72 70 71 70 70
Altim30.02 29.98 29.95 29.93 29.92 29.92 29.93 29.93 29.94 29.95 29.96 29.97 29.97
VIS6 10 10 10 10 10 10 10 10 10 10 10 10
CIG37 -- 46 -- -- 60 -- 130 65 -- 110 95 90
CoverOVCSCTBKNSCTSCTBKNFEWBKNBKNFEWBKNBKNBKN
FltCatVFRVFRVFRVFRVFRVFRVFRVFRVFRVFRVFRVFRVFR
WX-RA BR------------------------
WDir180220220230240240240230250250260240260
WSpd9 9 19 11 11 11 10 10 14 11 11 10 8
WGst18 -- 23 20 21 -- -- -- -- -- -- -- --
Raw hourly METARs
KFLL 091603Z AUTO 18009G18KT 6SM R10L/4000VP6000FT -RA BR FEW014 BKN037 OVC055 24/24 A3002 RMK AO2 P0002 T02390239
KFLL 091653Z COR 22009KT 10SM SCT020CB SCT055 27/26 A2998 RMK AO2 LTG DSNT NE AND E RAE09 SLP151 CB E MOV NE P0002 T02670256
KFLL 091753Z COR 22019G23KT 10SM SCT023 BKN046 BKN200 28/23 A2995 RMK AO2 SLP140 60018 T02780233 10278 20239 58025
KFLL 091853Z AUTO 23011G20KT 10SM SCT031 SCT044 28/23 A2993 RMK AO2 PK WND 22028/1807 SLP136 T02780228
KFLL 091953Z AUTO 24011G21KT 10SM FEW034 SCT045 28/22 A2992 RMK AO2 SLP132 T02780222
KFLL 092053Z AUTO 24011KT 10SM SCT034 SCT045 BKN060 27/22 A2992 RMK AO2 SLP133 T02670222 55008
KFLL 092153Z 24010KT 10SM FEW030 26/22 A2993 RMK AO2 SLP133 T02610217
KFLL 092253Z 23010KT 10SM FEW030 SCT065 BKN130 BKN200 26/23 A2993 RMK AO2 SLP135 T02560228
KFLL 092353Z COR 25014KT 10SM SCT022 BKN065 BKIN160 24/22 A2994
KFLL 100053Z 25011KT 10SM FEW023 24/21 A2995 RMK AO2 SLP142 T02390211
KFLL 100153Z 26011KT 10SM FEW025 BKN110 23/22 A2996 RMK AO2 SLP145 T02280217
KFLL 100253Z 24010KT 10SM FEW020 BKN095 23/21 A2997 RMK AO2 SLP148 T02280211 51009
KFLL 100353Z 26008KT 10SM FEW022 BKN090 22/21 A2997 RMK AO2 SLP148 T02220211



Page loaded:  04:47 UTC  |   08:47 PM Pacific  |   09:47 PM Mountain  |   10:47 PM Central  |   11:47 PM Eastern

 

ADVISORIES

FORECASTS

FORECASTS

OBSERVATIONS

USER TOOLS

ABOUT US